Fort Calhoun, Nebraska
Current Conditions -  °F | °C
As of 10:35 AM on Wednesday 22 Oct 2014 (Local Time) from KBTA Reporting Station
Clear Clear  
Wind Chill: 62°   Ceiling: Unl
Heat Index: 62°   Visibility: 10mi
Dew Point: 47°   Wind: 16mph
Humidity: 58%   Direction: 150°SSE
Pressure: 30.09"   Gusts: NA
Location:  41.46°N, 96.03°W
Report Text: KBTA 221535Z AUTO 15014KT 10SM CLR 17/08 A3009 RMK AO2 T01650081
Loading
Personal Weather Stations






























Interactive Weather Map
Tropical Storm Tracking
New forecast layout! Learn more

10-Day Weather Forecast

Advertisements
Track Severe Weather on mobile